sensor_id;sensor_type;location;lat;lon;timestamp;P1;durP1;ratioP1;P2;durP2;ratioP2
37847;SDS011;23688;33.130;-117.188;2023-02-08T00:02:25;5.60;;;0.50;;
37847;SDS011;23688;33.130;-117.188;2023-02-08T00:04:51;4.32;;;0.70;;
37847;SDS011;23688;33.130;-117.188;2023-02-08T00:07:17;3.13;;;0.77;;
37847;SDS011;23688;33.130;-117.188;2023-02-08T00:09:44;2.38;;;0.70;;
37847;SDS011;23688;33.130;-117.188;2023-02-08T00:12:10;5.20;;;0.95;;
37847;SDS011;23688;33.130;-117.188;2023-02-08T00:14:36;2.75;;;0.55;;
37847;SDS011;23688;33.130;-117.188;2023-02-08T00:17:03;3.58;;;1.20;;
37847;SDS011;23688;33.130;-117.188;2023-02-08T00:19:29;3.15;;;0.60;;
37847;SDS011;23688;33.130;-117.188;2023-02-08T00:21:55;2.65;;;0.70;;
37847;SDS011;23688;33.130;-117.188;2023-02-08T00:24:21;5.15;;;0.65;;
37847;SDS011;23688;33.130;-117.188;2023-02-08T00:26:47;2.42;;;0.70;;
37847;SDS011;23688;33.130;-117.188;2023-02-08T00:29:14;6.45;;;0.85;;
37847;SDS011;23688;33.130;-117.188;2023-02-08T00:31:40;6.20;;;0.70;;
37847;SDS011;23688;33.130;-117.188;2023-02-08T00:34:06;4.07;;;0.82;;
37847;SDS011;23688;33.130;-117.188;2023-02-08T00:36:33;3.10;;;0.70;;
37847;SDS011;23688;33.130;-117.188;2023-02-08T00:38:59;4.70;;;0.55;;
37847;SDS011;23688;33.130;-117.188;2023-02-08T00:41:25;1.77;;;0.60;;
37847;SDS011;23688;33.130;-117.188;2023-02-08T00:43:52;4.72;;;1.17;;
37847;SDS011;23688;33.130;-117.188;2023-02-08T00:46:18;3.00;;;0.98;;
37847;SDS011;23688;33.130;-117.188;2023-02-08T00:48:45;1.75;;;0.93;;
37847;SDS011;23688;33.130;-117.188;2023-02-08T00:51:11;2.47;;;0.60;;
37847;SDS011;23688;33.130;-117.188;2023-02-08T00:53:40;4.25;;;1.13;;
37847;SDS011;23688;33.130;-117.188;2023-02-08T00:58:35;4.28;;;0.90;;
37847;SDS011;23688;33.130;-117.188;2023-02-08T01:01:02;4.15;;;0.90;;
37847;SDS011;23688;33.130;-117.188;2023-02-08T01:03:29;2.88;;;0.90;;
37847;SDS011;23688;33.130;-117.188;2023-02-08T01:06:05;2.38;;;0.98;;
37847;SDS011;23688;33.130;-117.188;2023-02-08T01:08:33;1.42;;;0.77;;
37847;SDS011;23688;33.130;-117.188;2023-02-08T01:11:11;1.33;;;0.70;;
37847;SDS011;23688;33.130;-117.188;2023-02-08T01:13:39;3.97;;;1.10;;
37847;SDS011;23688;33.130;-117.188;2023-02-08T01:16:16;2.40;;;0.75;;
37847;SDS011;23688;33.130;-117.188;2023-02-08T01:18:46;4.03;;;0.80;;
37847;SDS011;23688;33.130;-117.188;2023-02-08T01:21:15;6.18;;;2.08;;
37847;SDS011;23688;33.130;-117.188;2023-02-08T01:23:44;5.00;;;0.80;;
37847;SDS011;23688;33.130;-117.188;2023-02-08T01:26:11;5.65;;;1.10;;
37847;SDS011;23688;33.130;-117.188;2023-02-08T01:28:39;6.47;;;1.65;;
37847;SDS011;23688;33.130;-117.188;2023-02-08T01:31:07;5.80;;;3.75;;
37847;SDS011;23688;33.130;-117.188;2023-02-08T01:33:38;9.50;;;3.97;;
37847;SDS011;23688;33.130;-117.188;2023-02-08T01:36:05;3.83;;;2.60;;
37847;SDS011;23688;33.130;-117.188;2023-02-08T01:38:32;5.30;;;0.90;;
37847;SDS011;23688;33.130;-117.188;2023-02-08T01:40:59;2.45;;;1.02;;
37847;SDS011;23688;33.130;-117.188;2023-02-08T01:43:28;3.53;;;1.20;;
37847;SDS011;23688;33.130;-117.188;2023-02-08T01:45:56;6.13;;;1.70;;
37847;SDS011;23688;33.130;-117.188;2023-02-08T01:48:33;3.30;;;1.15;;
37847;SDS011;23688;33.130;-117.188;2023-02-08T01:51:07;1.92;;;0.90;;
37847;SDS011;23688;33.130;-117.188;2023-02-08T01:53:38;2.10;;;0.90;;
37847;SDS011;23688;33.130;-117.188;2023-02-08T01:56:07;2.10;;;1.08;;
37847;SDS011;23688;33.130;-117.188;2023-02-08T01:58:38;2.20;;;1.00;;
37847;SDS011;23688;33.130;-117.188;2023-02-08T02:01:09;2.95;;;1.10;;
37847;SDS011;23688;33.130;-117.188;2023-02-08T02:03:37;2.53;;;1.13;;
37847;SDS011;23688;33.130;-117.188;2023-02-08T02:06:08;4.10;;;0.93;;
37847;SDS011;23688;33.130;-117.188;2023-02-08T02:08:39;3.78;;;0.68;;
37847;SDS011;23688;33.130;-117.188;2023-02-08T02:11:13;2.72;;;0.63;;
37847;SDS011;23688;33.130;-117.188;2023-02-08T02:13:41;2.45;;;1.35;;
37847;SDS011;23688;33.130;-117.188;2023-02-08T02:16:08;4.90;;;1.00;;
37847;SDS011;23688;33.130;-117.188;2023-02-08T02:18:34;5.65;;;1.45;;
37847;SDS011;23688;33.130;-117.188;2023-02-08T02:27:03;2.55;;;1.48;;
37847;SDS011;23688;33.130;-117.188;2023-02-08T02:44:32;3.28;;;1.40;;
37847;SDS011;23688;33.130;-117.188;2023-02-08T02:50:11;3.55;;;2.90;;
37847;SDS011;23688;33.130;-117.188;2023-02-08T02:52:45;4.35;;;2.42;;
37847;SDS011;23688;33.130;-117.188;2023-02-08T02:55:23;9.43;;;1.50;;
37847;SDS011;23688;33.130;-117.188;2023-02-08T02:57:52;2.78;;;1.90;;
37847;SDS011;23688;33.130;-117.188;2023-02-08T03:00:23;5.32;;;2.00;;
37847;SDS011;23688;33.130;-117.188;2023-02-08T03:02:51;5.25;;;3.75;;
37847;SDS011;23688;33.130;-117.188;2023-02-08T03:05:20;5.80;;;2.85;;
37847;SDS011;23688;33.130;-117.188;2023-02-08T03:08:10;5.53;;;4.22;;
37847;SDS011;23688;33.130;-117.188;2023-02-08T03:10:40;13.70;;;4.60;;
37847;SDS011;23688;33.130;-117.188;2023-02-08T03:13:24;5.70;;;4.13;;
37847;SDS011;23688;33.130;-117.188;2023-02-08T03:16:00;7.75;;;3.53;;
37847;SDS011;23688;33.130;-117.188;2023-02-08T03:21:35;8.93;;;3.00;;
37847;SDS011;23688;33.130;-117.188;2023-02-08T03:32:45;3.17;;;1.80;;
37847;SDS011;23688;33.130;-117.188;2023-02-08T03:38:07;5.22;;;1.58;;
37847;SDS011;23688;33.130;-117.188;2023-02-08T03:40:54;4.22;;;1.33;;
37847;SDS011;23688;33.130;-117.188;2023-02-08T03:43:33;4.65;;;1.63;;
37847;SDS011;23688;33.130;-117.188;2023-02-08T03:46:13;4.53;;;1.00;;
37847;SDS011;23688;33.130;-117.188;2023-02-08T03:48:48;2.60;;;0.85;;
37847;SDS011;23688;33.130;-117.188;2023-02-08T03:51:21;5.43;;;1.33;;
37847;SDS011;23688;33.130;-117.188;2023-02-08T03:53:50;3.05;;;1.13;;
37847;SDS011;23688;33.130;-117.188;2023-02-08T03:56:21;2.38;;;1.17;;
37847;SDS011;23688;33.130;-117.188;2023-02-08T03:58:59;4.10;;;1.30;;
37847;SDS011;23688;33.130;-117.188;2023-02-08T04:01:34;1.77;;;0.90;;
37847;SDS011;23688;33.130;-117.188;2023-02-08T04:04:06;5.57;;;1.58;;
37847;SDS011;23688;33.130;-117.188;2023-02-08T04:06:38;11.82;;;2.17;;
37847;SDS011;23688;33.130;-117.188;2023-02-08T04:09:04;2.53;;;1.95;;
37847;SDS011;23688;33.130;-117.188;2023-02-08T04:11:31;4.10;;;1.92;;
37847;SDS011;23688;33.130;-117.188;2023-02-08T04:13:57;1.70;;;1.30;;
37847;SDS011;23688;33.130;-117.188;2023-02-08T04:16:24;2.97;;;1.80;;
37847;SDS011;23688;33.130;-117.188;2023-02-08T04:18:50;5.97;;;1.67;;
37847;SDS011;23688;33.130;-117.188;2023-02-08T04:21:16;9.63;;;2.40;;
37847;SDS011;23688;33.130;-117.188;2023-02-08T04:23:43;8.02;;;1.30;;
37847;SDS011;23688;33.130;-117.188;2023-02-08T04:26:10;3.22;;;1.20;;
37847;SDS011;23688;33.130;-117.188;2023-02-08T04:28:36;2.78;;;1.40;;
37847;SDS011;23688;33.130;-117.188;2023-02-08T04:31:02;4.63;;;1.30;;
37847;SDS011;23688;33.130;-117.188;2023-02-08T04:33:29;3.58;;;1.63;;
37847;SDS011;23688;33.130;-117.188;2023-02-08T04:35:55;2.88;;;0.90;;
37847;SDS011;23688;33.130;-117.188;2023-02-08T04:38:21;3.13;;;1.10;;
37847;SDS011;23688;33.130;-117.188;2023-02-08T04:40:48;3.20;;;1.33;;
37847;SDS011;23688;33.130;-117.188;2023-02-08T04:43:14;2.70;;;0.90;;
37847;SDS011;23688;33.130;-117.188;2023-02-08T04:45:41;2.03;;;0.98;;
37847;SDS011;23688;33.130;-117.188;2023-02-08T04:48:07;3.85;;;1.08;;
37847;SDS011;23688;33.130;-117.188;2023-02-08T04:50:33;2.95;;;0.82;;
37847;SDS011;23688;33.130;-117.188;2023-02-08T04:53:01;0.97;;;0.80;;
37847;SDS011;23688;33.130;-117.188;2023-02-08T04:55:28;3.35;;;1.15;;
37847;SDS011;23688;33.130;-117.188;2023-02-08T04:57:54;2.38;;;0.95;;
37847;SDS011;23688;33.130;-117.188;2023-02-08T05:00:20;7.05;;;1.13;;
37847;SDS011;23688;33.130;-117.188;2023-02-08T05:02:47;5.13;;;0.80;;
37847;SDS011;23688;33.130;-117.188;2023-02-08T05:05:16;1.92;;;0.80;;
37847;SDS011;23688;33.130;-117.188;2023-02-08T05:07:42;5.97;;;1.20;;
37847;SDS011;23688;33.130;-117.188;2023-02-08T05:10:09;3.08;;;0.80;;
37847;SDS011;23688;33.130;-117.188;2023-02-08T05:12:35;5.70;;;2.67;;
37847;SDS011;23688;33.130;-117.188;2023-02-08T05:15:02;8.40;;;3.08;;
37847;SDS011;23688;33.130;-117.188;2023-02-08T05:17:28;9.88;;;4.22;;
37847;SDS011;23688;33.130;-117.188;2023-02-08T05:19:54;9.23;;;1.80;;
37847;SDS011;23688;33.130;-117.188;2023-02-08T05:22:22;4.70;;;1.92;;
37847;SDS011;23688;33.130;-117.188;2023-02-08T05:24:50;4.55;;;1.30;;
37847;SDS011;23688;33.130;-117.188;2023-02-08T05:27:16;2.55;;;1.05;;
37847;SDS011;23688;33.130;-117.188;2023-02-08T05:29:43;2.03;;;0.88;;
37847;SDS011;23688;33.130;-117.188;2023-02-08T05:32:09;5.32;;;1.67;;
37847;SDS011;23688;33.130;-117.188;2023-02-08T05:34:36;4.32;;;1.30;;
37847;SDS011;23688;33.130;-117.188;2023-02-08T05:37:02;7.63;;;2.58;;
37847;SDS011;23688;33.130;-117.188;2023-02-08T05:39:29;10.02;;;2.50;;
37847;SDS011;23688;33.130;-117.188;2023-02-08T05:41:55;8.70;;;2.03;;
37847;SDS011;23688;33.130;-117.188;2023-02-08T05:44:22;3.20;;;1.40;;
37847;SDS011;23688;33.130;-117.188;2023-02-08T05:46:48;4.07;;;1.88;;
37847;SDS011;23688;33.130;-117.188;2023-02-08T05:49:14;2.40;;;1.27;;
37847;SDS011;23688;33.130;-117.188;2023-02-08T05:51:41;8.60;;;2.03;;
37847;SDS011;23688;33.130;-117.188;2023-02-08T05:54:07;6.85;;;1.80;;
37847;SDS011;23688;33.130;-117.188;2023-02-08T05:56:33;6.07;;;1.83;;
37847;SDS011;23688;33.130;-117.188;2023-02-08T05:59:00;5.15;;;1.60;;
37847;SDS011;23688;33.130;-117.188;2023-02-08T06:01:28;8.80;;;2.50;;
37847;SDS011;23688;33.130;-117.188;2023-02-08T06:03:54;15.23;;;2.90;;
37847;SDS011;23688;33.130;-117.188;2023-02-08T06:06:21;7.55;;;1.80;;
37847;SDS011;23688;33.130;-117.188;2023-02-08T06:08:47;9.52;;;2.60;;
37847;SDS011;23688;33.130;-117.188;2023-02-08T06:11:13;6.28;;;1.80;;
37847;SDS011;23688;33.130;-117.188;2023-02-08T06:13:39;5.65;;;1.70;;
37847;SDS011;23688;33.130;-117.188;2023-02-08T06:16:06;6.03;;;1.98;;
37847;SDS011;23688;33.130;-117.188;2023-02-08T06:18:32;6.30;;;1.77;;
37847;SDS011;23688;33.130;-117.188;2023-02-08T06:20:59;7.38;;;1.70;;
37847;SDS011;23688;33.130;-117.188;2023-02-08T06:23:25;7.88;;;2.17;;
37847;SDS011;23688;33.130;-117.188;2023-02-08T06:25:51;3.75;;;2.20;;
37847;SDS011;23688;33.130;-117.188;2023-02-08T06:28:18;5.55;;;2.03;;
37847;SDS011;23688;33.130;-117.188;2023-02-08T06:30:44;6.05;;;2.20;;
37847;SDS011;23688;33.130;-117.188;2023-02-08T06:33:10;6.82;;;2.97;;
37847;SDS011;23688;33.130;-117.188;2023-02-08T06:35:37;9.30;;;3.40;;
37847;SDS011;23688;33.130;-117.188;2023-02-08T06:38:03;7.95;;;2.25;;
37847;SDS011;23688;33.130;-117.188;2023-02-08T06:40:29;8.10;;;3.40;;
37847;SDS011;23688;33.130;-117.188;2023-02-08T06:42:56;8.73;;;2.80;;
37847;SDS011;23688;33.130;-117.188;2023-02-08T06:45:22;7.15;;;2.78;;
37847;SDS011;23688;33.130;-117.188;2023-02-08T06:47:50;5.22;;;2.75;;
37847;SDS011;23688;33.130;-117.188;2023-02-08T06:50:17;8.10;;;2.53;;
37847;SDS011;23688;33.130;-117.188;2023-02-08T06:52:43;6.82;;;2.80;;
37847;SDS011;23688;33.130;-117.188;2023-02-08T06:55:09;7.82;;;2.95;;
37847;SDS011;23688;33.130;-117.188;2023-02-08T06:57:36;5.85;;;2.80;;
37847;SDS011;23688;33.130;-117.188;2023-02-08T07:00:02;6.82;;;2.50;;
37847;SDS011;23688;33.130;-117.188;2023-02-08T07:02:30;7.72;;;2.70;;
37847;SDS011;23688;33.130;-117.188;2023-02-08T07:05:01;9.48;;;3.42;;
37847;SDS011;23688;33.130;-117.188;2023-02-08T07:07:28;6.18;;;2.83;;
37847;SDS011;23688;33.130;-117.188;2023-02-08T07:09:54;6.32;;;2.75;;
37847;SDS011;23688;33.130;-117.188;2023-02-08T07:12:20;14.07;;;2.97;;
37847;SDS011;23688;33.130;-117.188;2023-02-08T07:14:46;8.50;;;2.92;;
37847;SDS011;23688;33.130;-117.188;2023-02-08T07:17:13;5.20;;;3.00;;
37847;SDS011;23688;33.130;-117.188;2023-02-08T07:19:39;5.05;;;2.00;;
37847;SDS011;23688;33.130;-117.188;2023-02-08T07:22:06;7.22;;;2.53;;
37847;SDS011;23688;33.130;-117.188;2023-02-08T07:24:35;5.60;;;1.80;;
37847;SDS011;23688;33.130;-117.188;2023-02-08T07:27:03;5.78;;;1.95;;
37847;SDS011;23688;33.130;-117.188;2023-02-08T07:29:32;8.60;;;2.20;;
37847;SDS011;23688;33.130;-117.188;2023-02-08T07:32:00;4.03;;;1.67;;
37847;SDS011;23688;33.130;-117.188;2023-02-08T07:34:30;3.08;;;1.90;;
37847;SDS011;23688;33.130;-117.188;2023-02-08T07:36:58;5.68;;;2.28;;
37847;SDS011;23688;33.130;-117.188;2023-02-08T07:39:25;7.60;;;1.98;;
37847;SDS011;23688;33.130;-117.188;2023-02-08T07:41:52;11.00;;;2.35;;
37847;SDS011;23688;33.130;-117.188;2023-02-08T07:44:18;4.57;;;1.98;;
37847;SDS011;23688;33.130;-117.188;2023-02-08T07:46:44;7.55;;;2.00;;
37847;SDS011;23688;33.130;-117.188;2023-02-08T07:49:11;4.60;;;1.73;;
37847;SDS011;23688;33.130;-117.188;2023-02-08T07:51:37;4.15;;;2.10;;
37847;SDS011;23688;33.130;-117.188;2023-02-08T07:54:04;3.05;;;1.90;;
37847;SDS011;23688;33.130;-117.188;2023-02-08T07:56:30;3.38;;;1.95;;
37847;SDS011;23688;33.130;-117.188;2023-02-08T07:58:56;4.32;;;2.25;;
37847;SDS011;23688;33.130;-117.188;2023-02-08T08:01:23;7.13;;;1.70;;
37847;SDS011;23688;33.130;-117.188;2023-02-08T08:03:50;6.47;;;2.28;;
37847;SDS011;23688;33.130;-117.188;2023-02-08T08:06:17;6.13;;;2.55;;
37847;SDS011;23688;33.130;-117.188;2023-02-08T08:08:44;5.50;;;2.40;;
37847;SDS011;23688;33.130;-117.188;2023-02-08T08:11:12;9.43;;;2.47;;
37847;SDS011;23688;33.130;-117.188;2023-02-08T08:13:42;6.63;;;2.45;;
37847;SDS011;23688;33.130;-117.188;2023-02-08T08:16:08;3.85;;;1.90;;
37847;SDS011;23688;33.130;-117.188;2023-02-08T08:18:35;3.08;;;1.80;;
37847;SDS011;23688;33.130;-117.188;2023-02-08T08:21:01;4.13;;;2.80;;
37847;SDS011;23688;33.130;-117.188;2023-02-08T08:23:28;7.80;;;2.00;;
37847;SDS011;23688;33.130;-117.188;2023-02-08T08:25:57;4.95;;;2.42;;
37847;SDS011;23688;33.130;-117.188;2023-02-08T08:28:24;7.90;;;2.40;;
37847;SDS011;23688;33.130;-117.188;2023-02-08T08:30:51;5.68;;;2.85;;
37847;SDS011;23688;33.130;-117.188;2023-02-08T08:33:17;9.18;;;2.63;;
37847;SDS011;23688;33.130;-117.188;2023-02-08T08:35:44;8.25;;;1.83;;
37847;SDS011;23688;33.130;-117.188;2023-02-08T08:38:11;7.03;;;2.40;;
37847;SDS011;23688;33.130;-117.188;2023-02-08T08:40:38;4.25;;;2.25;;
37847;SDS011;23688;33.130;-117.188;2023-02-08T08:43:04;4.00;;;1.80;;
37847;SDS011;23688;33.130;-117.188;2023-02-08T08:45:31;3.72;;;2.05;;
37847;SDS011;23688;33.130;-117.188;2023-02-08T08:47:57;4.15;;;2.38;;
37847;SDS011;23688;33.130;-117.188;2023-02-08T08:50:25;5.13;;;2.33;;
37847;SDS011;23688;33.130;-117.188;2023-02-08T08:52:51;3.97;;;2.15;;
37847;SDS011;23688;33.130;-117.188;2023-02-08T08:55:18;7.43;;;2.15;;
37847;SDS011;23688;33.130;-117.188;2023-02-08T08:57:44;5.22;;;2.25;;
37847;SDS011;23688;33.130;-117.188;2023-02-08T09:00:11;3.30;;;1.73;;
37847;SDS011;23688;33.130;-117.188;2023-02-08T09:02:37;3.67;;;1.90;;
37847;SDS011;23688;33.130;-117.188;2023-02-08T09:05:04;5.75;;;2.08;;
37847;SDS011;23688;33.130;-117.188;2023-02-08T09:07:32;11.23;;;3.42;;
37847;SDS011;23688;33.130;-117.188;2023-02-08T09:10:00;4.90;;;2.35;;
37847;SDS011;23688;33.130;-117.188;2023-02-08T09:12:27;8.75;;;1.98;;
37847;SDS011;23688;33.130;-117.188;2023-02-08T09:14:54;7.50;;;1.50;;
37847;SDS011;23688;33.130;-117.188;2023-02-08T09:17:20;2.80;;;1.42;;
37847;SDS011;23688;33.130;-117.188;2023-02-08T09:19:46;3.08;;;1.40;;
37847;SDS011;23688;33.130;-117.188;2023-02-08T09:22:13;4.80;;;1.48;;
37847;SDS011;23688;33.130;-117.188;2023-02-08T09:24:39;8.40;;;1.58;;
37847;SDS011;23688;33.130;-117.188;2023-02-08T09:27:05;5.18;;;1.55;;
37847;SDS011;23688;33.130;-117.188;2023-02-08T09:29:32;2.50;;;1.80;;
37847;SDS011;23688;33.130;-117.188;2023-02-08T09:31:58;4.95;;;2.15;;
37847;SDS011;23688;33.130;-117.188;2023-02-08T09:34:25;13.65;;;2.13;;
37847;SDS011;23688;33.130;-117.188;2023-02-08T09:36:51;3.55;;;1.67;;
37847;SDS011;23688;33.130;-117.188;2023-02-08T09:39:19;6.82;;;2.15;;
37847;SDS011;23688;33.130;-117.188;2023-02-08T09:44:31;3.83;;;1.73;;
37847;SDS011;23688;33.130;-117.188;2023-02-08T09:47:21;6.40;;;1.98;;
37847;SDS011;23688;33.130;-117.188;2023-02-08T09:49:59;5.97;;;1.85;;
37847;SDS011;23688;33.130;-117.188;2023-02-08T09:55:59;4.93;;;2.17;;
37847;SDS011;23688;33.130;-117.188;2023-02-08T09:58:32;3.28;;;2.00;;
37847;SDS011;23688;33.130;-117.188;2023-02-08T10:01:05;3.83;;;1.75;;
37847;SDS011;23688;33.130;-117.188;2023-02-08T10:03:41;4.00;;;1.90;;
37847;SDS011;23688;33.130;-117.188;2023-02-08T10:06:12;2.67;;;1.40;;
37847;SDS011;23688;33.130;-117.188;2023-02-08T10:08:40;3.20;;;1.10;;
37847;SDS011;23688;33.130;-117.188;2023-02-08T10:11:11;2.13;;;1.27;;
37847;SDS011;23688;33.130;-117.188;2023-02-08T10:14:26;3.03;;;1.20;;
37847;SDS011;23688;33.130;-117.188;2023-02-08T10:19:54;1.90;;;1.38;;
37847;SDS011;23688;33.130;-117.188;2023-02-08T10:39:39;1.38;;;1.17;;
37847;SDS011;23688;33.130;-117.188;2023-02-08T10:42:11;5.55;;;1.13;;
37847;SDS011;23688;33.130;-117.188;2023-02-08T10:47:47;2.05;;;1.10;;
37847;SDS011;23688;33.130;-117.188;2023-02-08T10:50:19;8.75;;;1.42;;
37847;SDS011;23688;33.130;-117.188;2023-02-08T10:52:58;1.58;;;0.88;;
37847;SDS011;23688;33.130;-117.188;2023-02-08T10:55:24;2.20;;;0.60;;
37847;SDS011;23688;33.130;-117.188;2023-02-08T10:57:51;1.60;;;0.65;;
37847;SDS011;23688;33.130;-117.188;2023-02-08T11:00:25;0.65;;;0.50;;
37847;SDS011;23688;33.130;-117.188;2023-02-08T11:02:53;1.65;;;0.70;;
37847;SDS011;23688;33.130;-117.188;2023-02-08T11:11:24;0.68;;;0.68;;
37847;SDS011;23688;33.130;-117.188;2023-02-08T11:13:43;0.80;;;0.63;;
37847;SDS011;23688;33.130;-117.188;2023-02-08T11:16:19;1.20;;;0.80;;
37847;SDS011;23688;33.130;-117.188;2023-02-08T11:21:23;1.90;;;0.60;;
37847;SDS011;23688;33.130;-117.188;2023-02-08T11:23:57;0.95;;;0.43;;
37847;SDS011;23688;33.130;-117.188;2023-02-08T11:29:00;3.83;;;1.58;;
37847;SDS011;23688;33.130;-117.188;2023-02-08T11:31:38;8.68;;;1.65;;
37847;SDS011;23688;33.130;-117.188;2023-02-08T11:34:30;2.80;;;1.48;;
37847;SDS011;23688;33.130;-117.188;2023-02-08T11:37:04;2.97;;;0.80;;
37847;SDS011;23688;33.130;-117.188;2023-02-08T11:39:51;1.08;;;0.68;;
37847;SDS011;23688;33.130;-117.188;2023-02-08T11:44:53;0.98;;;0.80;;
37847;SDS011;23688;33.130;-117.188;2023-02-08T11:47:25;2.13;;;1.17;;
37847;SDS011;23688;33.130;-117.188;2023-02-08T11:49:54;1.63;;;0.90;;
37847;SDS011;23688;33.130;-117.188;2023-02-08T11:52:29;1.92;;;0.98;;
37847;SDS011;23688;33.130;-117.188;2023-02-08T11:55:18;2.20;;;1.00;;
37847;SDS011;23688;33.130;-117.188;2023-02-08T12:00:59;1.40;;;0.90;;
37847;SDS011;23688;33.130;-117.188;2023-02-08T12:06:35;0.75;;;0.70;;
37847;SDS011;23688;33.130;-117.188;2023-02-08T12:23:28;3.15;;;0.85;;
37847;SDS011;23688;33.130;-117.188;2023-02-08T12:26:04;4.18;;;1.00;;
37847;SDS011;23688;33.130;-117.188;2023-02-08T12:31:53;2.83;;;0.80;;
37847;SDS011;23688;33.130;-117.188;2023-02-08T12:34:26;1.17;;;0.80;;
37847;SDS011;23688;33.130;-117.188;2023-02-08T12:51:18;12.50;;;1.40;;
37847;SDS011;23688;33.130;-117.188;2023-02-08T12:54:10;6.38;;;1.17;;
37847;SDS011;23688;33.130;-117.188;2023-02-08T12:56:43;3.53;;;1.37;;
37847;SDS011;23688;33.130;-117.188;2023-02-08T12:59:34;1.60;;;1.23;;
37847;SDS011;23688;33.130;-117.188;2023-02-08T13:05:12;1.20;;;0.80;;
37847;SDS011;23688;33.130;-117.188;2023-02-08T13:07:43;1.33;;;0.80;;
37847;SDS011;23688;33.130;-117.188;2023-02-08T13:10:33;4.32;;;1.33;;
37847;SDS011;23688;33.130;-117.188;2023-02-08T13:13:25;4.03;;;0.95;;
37847;SDS011;23688;33.130;-117.188;2023-02-08T13:21:47;2.75;;;1.00;;
37847;SDS011;23688;33.130;-117.188;2023-02-08T13:24:21;2.50;;;1.35;;
37847;SDS011;23688;33.130;-117.188;2023-02-08T13:26:53;3.08;;;1.33;;
37847;SDS011;23688;33.130;-117.188;2023-02-08T13:29:19;3.75;;;1.02;;
37847;SDS011;23688;33.130;-117.188;2023-02-08T13:31:53;2.17;;;1.20;;
37847;SDS011;23688;33.130;-117.188;2023-02-08T13:36:59;3.25;;;1.02;;
37847;SDS011;23688;33.130;-117.188;2023-02-08T13:39:42;2.38;;;0.98;;
37847;SDS011;23688;33.130;-117.188;2023-02-08T13:42:17;3.05;;;1.13;;
37847;SDS011;23688;33.130;-117.188;2023-02-08T13:44:52;3.15;;;0.70;;
37847;SDS011;23688;33.130;-117.188;2023-02-08T13:47:21;3.20;;;1.30;;
37847;SDS011;23688;33.130;-117.188;2023-02-08T13:49:56;8.60;;;1.40;;
37847;SDS011;23688;33.130;-117.188;2023-02-08T13:57:55;4.55;;;1.90;;
37847;SDS011;23688;33.130;-117.188;2023-02-08T14:00:26;13.18;;;2.50;;
37847;SDS011;23688;33.130;-117.188;2023-02-08T14:02:59;1.92;;;1.20;;
37847;SDS011;23688;33.130;-117.188;2023-02-08T14:05:47;5.05;;;1.20;;
37847;SDS011;23688;33.130;-117.188;2023-02-08T14:19:57;4.75;;;1.55;;
37847;SDS011;23688;33.130;-117.188;2023-02-08T14:22:26;2.97;;;1.30;;
37847;SDS011;23688;33.130;-117.188;2023-02-08T14:27:39;5.43;;;1.50;;
37847;SDS011;23688;33.130;-117.188;2023-02-08T14:32:42;4.95;;;1.50;;
37847;SDS011;23688;33.130;-117.188;2023-02-08T14:37:38;14.50;;;2.63;;
37847;SDS011;23688;33.130;-117.188;2023-02-08T14:42:57;7.90;;;1.40;;
37847;SDS011;23688;33.130;-117.188;2023-02-08T14:45:35;13.98;;;1.85;;
37847;SDS011;23688;33.130;-117.188;2023-02-08T14:48:15;6.95;;;2.00;;
37847;SDS011;23688;33.130;-117.188;2023-02-08T14:53:51;8.43;;;1.75;;
37847;SDS011;23688;33.130;-117.188;2023-02-08T14:56:35;8.68;;;2.33;;
37847;SDS011;23688;33.130;-117.188;2023-02-08T14:59:18;14.57;;;2.38;;
37847;SDS011;23688;33.130;-117.188;2023-02-08T15:01:50;9.18;;;1.73;;
37847;SDS011;23688;33.130;-117.188;2023-02-08T15:04:23;6.53;;;1.80;;
37847;SDS011;23688;33.130;-117.188;2023-02-08T15:07:04;8.55;;;1.83;;
37847;SDS011;23688;33.130;-117.188;2023-02-08T15:09:43;11.75;;;1.70;;
37847;SDS011;23688;33.130;-117.188;2023-02-08T15:12:15;5.47;;;1.83;;
37847;SDS011;23688;33.130;-117.188;2023-02-08T15:14:50;15.15;;;1.65;;
37847;SDS011;23688;33.130;-117.188;2023-02-08T15:19:51;8.02;;;2.00;;
37847;SDS011;23688;33.130;-117.188;2023-02-08T15:24:56;8.55;;;2.38;;
37847;SDS011;23688;33.130;-117.188;2023-02-08T15:27:30;8.90;;;1.83;;
37847;SDS011;23688;33.130;-117.188;2023-02-08T15:29:58;12.45;;;2.63;;
37847;SDS011;23688;33.130;-117.188;2023-02-08T15:32:25;16.23;;;2.30;;
37847;SDS011;23688;33.130;-117.188;2023-02-08T15:34:55;16.45;;;2.50;;
37847;SDS011;23688;33.130;-117.188;2023-02-08T15:37:24;18.75;;;2.55;;
37847;SDS011;23688;33.130;-117.188;2023-02-08T15:39:53;12.43;;;3.00;;
37847;SDS011;23688;33.130;-117.188;2023-02-08T15:42:22;10.13;;;2.47;;
37847;SDS011;23688;33.130;-117.188;2023-02-08T15:44:51;25.83;;;3.30;;
37847;SDS011;23688;33.130;-117.188;2023-02-08T15:47:27;13.38;;;2.53;;
37847;SDS011;23688;33.130;-117.188;2023-02-08T15:49:54;13.35;;;2.78;;
37847;SDS011;23688;33.130;-117.188;2023-02-08T15:52:23;10.90;;;2.55;;
37847;SDS011;23688;33.130;-117.188;2023-02-08T15:54:53;7.82;;;2.08;;
37847;SDS011;23688;33.130;-117.188;2023-02-08T15:59:52;7.63;;;2.15;;
37847;SDS011;23688;33.130;-117.188;2023-02-08T16:02:28;8.38;;;2.05;;
37847;SDS011;23688;33.130;-117.188;2023-02-08T16:05:00;8.52;;;1.75;;
37847;SDS011;23688;33.130;-117.188;2023-02-08T16:07:35;18.98;;;2.60;;
37847;SDS011;23688;33.130;-117.188;2023-02-08T16:10:05;5.28;;;2.25;;
37847;SDS011;23688;33.130;-117.188;2023-02-08T16:12:34;10.15;;;2.20;;
37847;SDS011;23688;33.130;-117.188;2023-02-08T16:15:01;6.53;;;2.22;;
37847;SDS011;23688;33.130;-117.188;2023-02-08T16:17:37;11.45;;;2.35;;
37847;SDS011;23688;33.130;-117.188;2023-02-08T16:20:21;10.77;;;2.40;;
37847;SDS011;23688;33.130;-117.188;2023-02-08T16:22:56;7.35;;;2.38;;
37847;SDS011;23688;33.130;-117.188;2023-02-08T16:30:59;12.57;;;2.80;;
37847;SDS011;23688;33.130;-117.188;2023-02-08T16:33:27;10.60;;;1.98;;
37847;SDS011;23688;33.130;-117.188;2023-02-08T16:38:29;14.07;;;3.70;;
37847;SDS011;23688;33.130;-117.188;2023-02-08T16:40:59;22.70;;;3.75;;
37847;SDS011;23688;33.130;-117.188;2023-02-08T16:43:44;17.58;;;2.88;;
37847;SDS011;23688;33.130;-117.188;2023-02-08T16:48:44;14.75;;;3.42;;
37847;SDS011;23688;33.130;-117.188;2023-02-08T16:51:23;3.85;;;1.63;;
37847;SDS011;23688;33.130;-117.188;2023-02-08T16:54:01;13.13;;;2.00;;
37847;SDS011;23688;33.130;-117.188;2023-02-08T16:56:34;13.40;;;2.70;;
37847;SDS011;23688;33.130;-117.188;2023-02-08T16:59:01;22.95;;;2.47;;
37847;SDS011;23688;33.130;-117.188;2023-02-08T17:01:27;15.18;;;2.10;;
37847;SDS011;23688;33.130;-117.188;2023-02-08T17:03:54;17.05;;;2.75;;
37847;SDS011;23688;33.130;-117.188;2023-02-08T17:08:49;25.13;;;3.67;;
37847;SDS011;23688;33.130;-117.188;2023-02-08T17:11:15;28.63;;;3.13;;
37847;SDS011;23688;33.130;-117.188;2023-02-08T17:13:42;21.38;;;3.95;;
37847;SDS011;23688;33.130;-117.188;2023-02-08T17:16:10;15.65;;;2.83;;
37847;SDS011;23688;33.130;-117.188;2023-02-08T17:18:42;14.95;;;3.08;;
37847;SDS011;23688;33.130;-117.188;2023-02-08T17:21:08;13.68;;;3.17;;
37847;SDS011;23688;33.130;-117.188;2023-02-08T17:23:35;18.50;;;2.38;;
37847;SDS011;23688;33.130;-117.188;2023-02-08T17:26:03;14.48;;;2.50;;
37847;SDS011;23688;33.130;-117.188;2023-02-08T17:28:45;14.18;;;2.22;;